sensor_id;sensor_type;location;lat;lon;timestamp;P1;durP1;ratioP1;P2;durP2;ratioP2
74293;SDS011;64044;59.904;10.738;2023-08-06T00:02:13;4.93;;;1.63;;
74293;SDS011;64044;59.904;10.738;2023-08-06T00:04:39;6.85;;;1.63;;
74293;SDS011;64044;59.904;10.738;2023-08-06T00:07:05;4.47;;;1.90;;
74293;SDS011;64044;59.904;10.738;2023-08-06T00:09:30;6.30;;;2.10;;
74293;SDS011;64044;59.904;10.738;2023-08-06T00:11:56;5.15;;;1.95;;
74293;SDS011;64044;59.904;10.738;2023-08-06T00:14:22;2.33;;;1.60;;
74293;SDS011;64044;59.904;10.738;2023-08-06T00:16:48;5.40;;;1.80;;
74293;SDS011;64044;59.904;10.738;2023-08-06T00:19:13;4.22;;;2.08;;
74293;SDS011;64044;59.904;10.738;2023-08-06T00:21:39;7.30;;;1.95;;
74293;SDS011;64044;59.904;10.738;2023-08-06T00:24:05;5.22;;;1.92;;
74293;SDS011;64044;59.904;10.738;2023-08-06T00:26:31;5.95;;;1.58;;
74293;SDS011;64044;59.904;10.738;2023-08-06T00:28:56;3.85;;;2.00;;
74293;SDS011;64044;59.904;10.738;2023-08-06T00:31:22;4.10;;;1.83;;
74293;SDS011;64044;59.904;10.738;2023-08-06T00:33:48;4.63;;;1.70;;
74293;SDS011;64044;59.904;10.738;2023-08-06T00:36:13;5.70;;;1.85;;
74293;SDS011;64044;59.904;10.738;2023-08-06T00:38:39;3.85;;;2.20;;
74293;SDS011;64044;59.904;10.738;2023-08-06T00:41:05;5.20;;;2.40;;
74293;SDS011;64044;59.904;10.738;2023-08-06T00:43:30;1.95;;;1.50;;
74293;SDS011;64044;59.904;10.738;2023-08-06T00:45:56;4.00;;;1.90;;
74293;SDS011;64044;59.904;10.738;2023-08-06T00:48:22;3.58;;;1.40;;
74293;SDS011;64044;59.904;10.738;2023-08-06T00:50:47;5.05;;;2.05;;
74293;SDS011;64044;59.904;10.738;2023-08-06T00:53:13;2.90;;;1.92;;
74293;SDS011;64044;59.904;10.738;2023-08-06T00:55:39;3.28;;;1.85;;
74293;SDS011;64044;59.904;10.738;2023-08-06T00:58:05;3.88;;;1.80;;
74293;SDS011;64044;59.904;10.738;2023-08-06T01:00:31;3.58;;;1.80;;
74293;SDS011;64044;59.904;10.738;2023-08-06T01:02:56;3.35;;;2.15;;
74293;SDS011;64044;59.904;10.738;2023-08-06T01:05:22;3.10;;;1.60;;
74293;SDS011;64044;59.904;10.738;2023-08-06T01:07:56;3.03;;;1.65;;
74293;SDS011;64044;59.904;10.738;2023-08-06T01:13:47;4.22;;;1.75;;
74293;SDS011;64044;59.904;10.738;2023-08-06T01:16:17;3.17;;;1.65;;
74293;SDS011;64044;59.904;10.738;2023-08-06T01:18:43;4.22;;;2.20;;
74293;SDS011;64044;59.904;10.738;2023-08-06T01:21:12;4.13;;;1.25;;
74293;SDS011;64044;59.904;10.738;2023-08-06T01:23:38;4.00;;;1.40;;
74293;SDS011;64044;59.904;10.738;2023-08-06T01:31:37;4.25;;;1.35;;
74293;SDS011;64044;59.904;10.738;2023-08-06T01:34:05;2.22;;;1.30;;
74293;SDS011;64044;59.904;10.738;2023-08-06T01:36:34;3.28;;;1.52;;
74293;SDS011;64044;59.904;10.738;2023-08-06T01:39:01;6.55;;;1.52;;
74293;SDS011;64044;59.904;10.738;2023-08-06T01:41:27;2.38;;;1.40;;
74293;SDS011;64044;59.904;10.738;2023-08-06T01:43:52;2.17;;;1.48;;
74293;SDS011;64044;59.904;10.738;2023-08-06T01:46:18;3.17;;;1.50;;
74293;SDS011;64044;59.904;10.738;2023-08-06T01:48:44;2.88;;;1.25;;
74293;SDS011;64044;59.904;10.738;2023-08-06T01:51:09;2.88;;;1.27;;
74293;SDS011;64044;59.904;10.738;2023-08-06T01:53:35;4.75;;;1.55;;
74293;SDS011;64044;59.904;10.738;2023-08-06T01:56:01;4.55;;;1.35;;
74293;SDS011;64044;59.904;10.738;2023-08-06T01:58:26;3.95;;;1.80;;
74293;SDS011;64044;59.904;10.738;2023-08-06T02:00:52;4.90;;;1.60;;
74293;SDS011;64044;59.904;10.738;2023-08-06T02:03:18;3.85;;;1.48;;
74293;SDS011;64044;59.904;10.738;2023-08-06T02:05:44;4.22;;;1.17;;
74293;SDS011;64044;59.904;10.738;2023-08-06T02:08:10;4.38;;;1.50;;
74293;SDS011;64044;59.904;10.738;2023-08-06T02:10:36;7.22;;;2.20;;
74293;SDS011;64044;59.904;10.738;2023-08-06T02:13:02;5.75;;;2.17;;
74293;SDS011;64044;59.904;10.738;2023-08-06T02:15:27;2.15;;;1.70;;
74293;SDS011;64044;59.904;10.738;2023-08-06T02:17:53;5.50;;;1.52;;
74293;SDS011;64044;59.904;10.738;2023-08-06T02:20:19;3.55;;;1.60;;
74293;SDS011;64044;59.904;10.738;2023-08-06T02:22:45;4.13;;;1.50;;
74293;SDS011;64044;59.904;10.738;2023-08-06T02:25:10;4.53;;;1.75;;
74293;SDS011;64044;59.904;10.738;2023-08-06T02:27:37;5.18;;;1.70;;
74293;SDS011;64044;59.904;10.738;2023-08-06T02:30:03;1.88;;;1.40;;
74293;SDS011;64044;59.904;10.738;2023-08-06T02:32:30;2.03;;;1.52;;
74293;SDS011;64044;59.904;10.738;2023-08-06T02:34:56;3.35;;;1.77;;
74293;SDS011;64044;59.904;10.738;2023-08-06T02:37:22;3.33;;;1.33;;
74293;SDS011;64044;59.904;10.738;2023-08-06T02:39:48;1.38;;;1.15;;
74293;SDS011;64044;59.904;10.738;2023-08-06T02:42:13;4.10;;;1.50;;
74293;SDS011;64044;59.904;10.738;2023-08-06T02:44:39;3.20;;;1.30;;
74293;SDS011;64044;59.904;10.738;2023-08-06T02:47:05;2.60;;;1.45;;
74293;SDS011;64044;59.904;10.738;2023-08-06T02:49:31;3.58;;;1.17;;
74293;SDS011;64044;59.904;10.738;2023-08-06T02:51:57;2.40;;;1.33;;
74293;SDS011;64044;59.904;10.738;2023-08-06T02:54:22;3.63;;;1.58;;
74293;SDS011;64044;59.904;10.738;2023-08-06T02:56:48;2.97;;;1.70;;
74293;SDS011;64044;59.904;10.738;2023-08-06T02:59:14;2.30;;;1.55;;
74293;SDS011;64044;59.904;10.738;2023-08-06T03:01:39;2.42;;;1.70;;
74293;SDS011;64044;59.904;10.738;2023-08-06T03:04:05;3.35;;;1.20;;
74293;SDS011;64044;59.904;10.738;2023-08-06T03:06:31;1.85;;;1.50;;
74293;SDS011;64044;59.904;10.738;2023-08-06T03:08:57;2.85;;;1.38;;
74293;SDS011;64044;59.904;10.738;2023-08-06T03:11:23;3.65;;;1.35;;
74293;SDS011;64044;59.904;10.738;2023-08-06T03:13:48;2.22;;;2.03;;
74293;SDS011;64044;59.904;10.738;2023-08-06T03:16:14;2.35;;;1.90;;
74293;SDS011;64044;59.904;10.738;2023-08-06T03:18:40;1.92;;;1.48;;
74293;SDS011;64044;59.904;10.738;2023-08-06T03:21:06;2.20;;;1.30;;
74293;SDS011;64044;59.904;10.738;2023-08-06T03:23:32;2.28;;;1.15;;
74293;SDS011;64044;59.904;10.738;2023-08-06T03:26:01;3.22;;;1.30;;
74293;SDS011;64044;59.904;10.738;2023-08-06T03:28:28;3.03;;;1.50;;
74293;SDS011;64044;59.904;10.738;2023-08-06T03:31:00;2.13;;;1.40;;
74293;SDS011;64044;59.904;10.738;2023-08-06T03:33:27;2.78;;;1.38;;
74293;SDS011;64044;59.904;10.738;2023-08-06T03:35:53;2.85;;;1.73;;
74293;SDS011;64044;59.904;10.738;2023-08-06T03:38:18;2.75;;;1.88;;
74293;SDS011;64044;59.904;10.738;2023-08-06T03:40:45;1.88;;;1.40;;
74293;SDS011;64044;59.904;10.738;2023-08-06T03:43:11;2.40;;;1.55;;
74293;SDS011;64044;59.904;10.738;2023-08-06T03:45:37;2.45;;;1.85;;
74293;SDS011;64044;59.904;10.738;2023-08-06T03:48:03;3.30;;;1.65;;
74293;SDS011;64044;59.904;10.738;2023-08-06T03:50:29;1.60;;;1.50;;
74293;SDS011;64044;59.904;10.738;2023-08-06T03:52:54;2.83;;;2.33;;
74293;SDS011;64044;59.904;10.738;2023-08-06T03:55:20;2.00;;;1.90;;
74293;SDS011;64044;59.904;10.738;2023-08-06T03:57:46;3.67;;;2.00;;
74293;SDS011;64044;59.904;10.738;2023-08-06T04:00:12;3.20;;;1.90;;
74293;SDS011;64044;59.904;10.738;2023-08-06T04:02:38;2.72;;;2.05;;
74293;SDS011;64044;59.904;10.738;2023-08-06T04:05:04;2.63;;;1.73;;
74293;SDS011;64044;59.904;10.738;2023-08-06T04:07:30;2.80;;;2.10;;
74293;SDS011;64044;59.904;10.738;2023-08-06T04:09:59;5.50;;;2.17;;
74293;SDS011;64044;59.904;10.738;2023-08-06T04:12:27;2.22;;;1.85;;
74293;SDS011;64044;59.904;10.738;2023-08-06T04:14:53;3.15;;;1.90;;
74293;SDS011;64044;59.904;10.738;2023-08-06T04:17:19;4.32;;;2.17;;
74293;SDS011;64044;59.904;10.738;2023-08-06T04:19:55;4.75;;;2.25;;
74293;SDS011;64044;59.904;10.738;2023-08-06T04:22:24;3.83;;;2.35;;
74293;SDS011;64044;59.904;10.738;2023-08-06T04:24:50;3.33;;;2.40;;
74293;SDS011;64044;59.904;10.738;2023-08-06T04:27:16;2.92;;;2.47;;
74293;SDS011;64044;59.904;10.738;2023-08-06T04:29:42;5.05;;;2.70;;
74293;SDS011;64044;59.904;10.738;2023-08-06T04:32:09;4.20;;;2.50;;
74293;SDS011;64044;59.904;10.738;2023-08-06T04:34:35;4.75;;;2.97;;
74293;SDS011;64044;59.904;10.738;2023-08-06T04:37:02;4.25;;;2.55;;
74293;SDS011;64044;59.904;10.738;2023-08-06T04:39:29;3.13;;;2.28;;
74293;SDS011;64044;59.904;10.738;2023-08-06T04:41:57;2.90;;;2.08;;
74293;SDS011;64044;59.904;10.738;2023-08-06T04:44:23;5.38;;;2.47;;
74293;SDS011;64044;59.904;10.738;2023-08-06T04:46:49;4.38;;;2.10;;
74293;SDS011;64044;59.904;10.738;2023-08-06T04:49:15;7.90;;;3.80;;
74293;SDS011;64044;59.904;10.738;2023-08-06T04:51:41;6.25;;;2.85;;
74293;SDS011;64044;59.904;10.738;2023-08-06T04:54:06;6.18;;;2.55;;
74293;SDS011;64044;59.904;10.738;2023-08-06T04:56:32;6.82;;;2.55;;
74293;SDS011;64044;59.904;10.738;2023-08-06T04:58:58;5.38;;;2.00;;
74293;SDS011;64044;59.904;10.738;2023-08-06T05:01:24;4.45;;;2.60;;
74293;SDS011;64044;59.904;10.738;2023-08-06T05:03:50;4.88;;;2.63;;
74293;SDS011;64044;59.904;10.738;2023-08-06T05:06:16;4.15;;;2.25;;
74293;SDS011;64044;59.904;10.738;2023-08-06T05:08:41;7.63;;;2.30;;
74293;SDS011;64044;59.904;10.738;2023-08-06T05:11:07;9.25;;;2.50;;
74293;SDS011;64044;59.904;10.738;2023-08-06T05:13:34;5.65;;;2.22;;
74293;SDS011;64044;59.904;10.738;2023-08-06T05:15:59;3.50;;;1.67;;
74293;SDS011;64044;59.904;10.738;2023-08-06T05:18:25;4.03;;;1.63;;
74293;SDS011;64044;59.904;10.738;2023-08-06T05:20:51;2.28;;;1.63;;
74293;SDS011;64044;59.904;10.738;2023-08-06T05:23:16;4.30;;;1.75;;
74293;SDS011;64044;59.904;10.738;2023-08-06T05:25:42;1.33;;;1.17;;
74293;SDS011;64044;59.904;10.738;2023-08-06T05:28:32;3.58;;;2.13;;
74293;SDS011;64044;59.904;10.738;2023-08-06T05:31:02;5.25;;;2.30;;
74293;SDS011;64044;59.904;10.738;2023-08-06T05:33:28;4.13;;;1.95;;
74293;SDS011;64044;59.904;10.738;2023-08-06T05:35:54;5.07;;;2.78;;
74293;SDS011;64044;59.904;10.738;2023-08-06T05:38:20;5.20;;;2.08;;
74293;SDS011;64044;59.904;10.738;2023-08-06T05:40:46;2.65;;;1.77;;
74293;SDS011;64044;59.904;10.738;2023-08-06T05:43:11;2.58;;;1.52;;
74293;SDS011;64044;59.904;10.738;2023-08-06T05:45:37;3.88;;;1.88;;
74293;SDS011;64044;59.904;10.738;2023-08-06T05:48:03;3.25;;;1.83;;
74293;SDS011;64044;59.904;10.738;2023-08-06T05:50:28;6.93;;;2.38;;
74293;SDS011;64044;59.904;10.738;2023-08-06T05:52:54;3.95;;;1.75;;
74293;SDS011;64044;59.904;10.738;2023-08-06T05:55:20;4.85;;;1.83;;
74293;SDS011;64044;59.904;10.738;2023-08-06T05:57:49;3.35;;;1.90;;
74293;SDS011;64044;59.904;10.738;2023-08-06T06:02:43;3.20;;;1.70;;
74293;SDS011;64044;59.904;10.738;2023-08-06T06:05:09;5.72;;;2.50;;
74293;SDS011;64044;59.904;10.738;2023-08-06T06:07:35;4.50;;;1.77;;
74293;SDS011;64044;59.904;10.738;2023-08-06T06:10:00;5.50;;;2.13;;
74293;SDS011;64044;59.904;10.738;2023-08-06T06:12:26;3.92;;;1.75;;
74293;SDS011;64044;59.904;10.738;2023-08-06T06:14:52;5.07;;;1.60;;
74293;SDS011;64044;59.904;10.738;2023-08-06T06:17:18;4.72;;;2.33;;
74293;SDS011;64044;59.904;10.738;2023-08-06T06:19:43;3.67;;;2.08;;
74293;SDS011;64044;59.904;10.738;2023-08-06T06:22:09;3.53;;;2.17;;
74293;SDS011;64044;59.904;10.738;2023-08-06T06:24:34;5.28;;;2.00;;
74293;SDS011;64044;59.904;10.738;2023-08-06T06:27:00;4.88;;;2.22;;
74293;SDS011;64044;59.904;10.738;2023-08-06T06:29:26;3.45;;;2.10;;
74293;SDS011;64044;59.904;10.738;2023-08-06T06:31:52;2.35;;;1.50;;
74293;SDS011;64044;59.904;10.738;2023-08-06T06:34:17;2.28;;;1.70;;
74293;SDS011;64044;59.904;10.738;2023-08-06T06:36:43;2.28;;;1.52;;
74293;SDS011;64044;59.904;10.738;2023-08-06T06:39:09;3.67;;;1.70;;
74293;SDS011;64044;59.904;10.738;2023-08-06T06:41:34;4.25;;;1.88;;
74293;SDS011;64044;59.904;10.738;2023-08-06T06:44:00;2.00;;;1.67;;
74293;SDS011;64044;59.904;10.738;2023-08-06T06:46:26;5.55;;;1.48;;
74293;SDS011;64044;59.904;10.738;2023-08-06T06:48:51;3.67;;;2.00;;
74293;SDS011;64044;59.904;10.738;2023-08-06T06:51:17;3.45;;;1.83;;
74293;SDS011;64044;59.904;10.738;2023-08-06T06:53:43;4.55;;;1.75;;
74293;SDS011;64044;59.904;10.738;2023-08-06T06:56:08;2.95;;;1.50;;
74293;SDS011;64044;59.904;10.738;2023-08-06T06:58:34;2.80;;;1.60;;
74293;SDS011;64044;59.904;10.738;2023-08-06T07:01:00;3.60;;;2.40;;
74293;SDS011;64044;59.904;10.738;2023-08-06T07:03:26;4.63;;;1.80;;
74293;SDS011;64044;59.904;10.738;2023-08-06T07:05:56;7.63;;;1.60;;
74293;SDS011;64044;59.904;10.738;2023-08-06T07:08:23;6.22;;;1.40;;
74293;SDS011;64044;59.904;10.738;2023-08-06T07:10:49;4.15;;;1.83;;
74293;SDS011;64044;59.904;10.738;2023-08-06T07:13:15;3.83;;;1.50;;
74293;SDS011;64044;59.904;10.738;2023-08-06T07:15:41;2.58;;;1.42;;
74293;SDS011;64044;59.904;10.738;2023-08-06T07:18:07;4.38;;;2.90;;
74293;SDS011;64044;59.904;10.738;2023-08-06T07:20:33;3.55;;;1.65;;
74293;SDS011;64044;59.904;10.738;2023-08-06T07:22:59;2.60;;;1.55;;
74293;SDS011;64044;59.904;10.738;2023-08-06T07:25:25;2.00;;;1.60;;
74293;SDS011;64044;59.904;10.738;2023-08-06T07:27:51;7.68;;;2.25;;
74293;SDS011;64044;59.904;10.738;2023-08-06T07:30:17;2.85;;;1.65;;
74293;SDS011;64044;59.904;10.738;2023-08-06T07:32:42;4.28;;;1.65;;
74293;SDS011;64044;59.904;10.738;2023-08-06T07:35:08;5.78;;;1.77;;
74293;SDS011;64044;59.904;10.738;2023-08-06T07:37:37;4.10;;;1.67;;
74293;SDS011;64044;59.904;10.738;2023-08-06T07:40:04;5.53;;;1.83;;
74293;SDS011;64044;59.904;10.738;2023-08-06T07:42:30;5.43;;;1.48;;
74293;SDS011;64044;59.904;10.738;2023-08-06T07:44:58;4.78;;;1.70;;
74293;SDS011;64044;59.904;10.738;2023-08-06T07:47:24;3.28;;;1.48;;
74293;SDS011;64044;59.904;10.738;2023-08-06T07:49:49;5.28;;;1.45;;
74293;SDS011;64044;59.904;10.738;2023-08-06T07:52:15;5.68;;;1.50;;
74293;SDS011;64044;59.904;10.738;2023-08-06T07:54:41;3.30;;;1.67;;
74293;SDS011;64044;59.904;10.738;2023-08-06T07:57:07;4.80;;;1.80;;
74293;SDS011;64044;59.904;10.738;2023-08-06T07:59:33;4.88;;;1.80;;
74293;SDS011;64044;59.904;10.738;2023-08-06T08:02:00;5.00;;;2.00;;
74293;SDS011;64044;59.904;10.738;2023-08-06T08:04:26;1.77;;;1.52;;
74293;SDS011;64044;59.904;10.738;2023-08-06T08:06:51;6.25;;;1.70;;
74293;SDS011;64044;59.904;10.738;2023-08-06T08:09:17;2.30;;;1.60;;
74293;SDS011;64044;59.904;10.738;2023-08-06T08:11:43;3.80;;;1.85;;
74293;SDS011;64044;59.904;10.738;2023-08-06T08:14:09;3.25;;;1.48;;
74293;SDS011;64044;59.904;10.738;2023-08-06T08:16:34;2.55;;;1.60;;
74293;SDS011;64044;59.904;10.738;2023-08-06T08:19:00;2.30;;;1.35;;
74293;SDS011;64044;59.904;10.738;2023-08-06T08:21:26;4.25;;;1.80;;
74293;SDS011;64044;59.904;10.738;2023-08-06T08:23:52;2.75;;;1.30;;
74293;SDS011;64044;59.904;10.738;2023-08-06T08:26:18;3.17;;;1.85;;
74293;SDS011;64044;59.904;10.738;2023-08-06T08:28:43;3.20;;;1.40;;
74293;SDS011;64044;59.904;10.738;2023-08-06T08:31:09;4.03;;;1.20;;
74293;SDS011;64044;59.904;10.738;2023-08-06T08:33:38;3.67;;;1.40;;
74293;SDS011;64044;59.904;10.738;2023-08-06T08:36:04;2.78;;;1.00;;
74293;SDS011;64044;59.904;10.738;2023-08-06T08:38:30;3.78;;;1.00;;
74293;SDS011;64044;59.904;10.738;2023-08-06T08:40:55;3.63;;;1.40;;
74293;SDS011;64044;59.904;10.738;2023-08-06T08:43:21;4.75;;;1.50;;
74293;SDS011;64044;59.904;10.738;2023-08-06T08:45:51;3.88;;;1.40;;
74293;SDS011;64044;59.904;10.738;2023-08-06T08:48:20;3.85;;;1.23;;
74293;SDS011;64044;59.904;10.738;2023-08-06T08:50:47;1.77;;;1.00;;
74293;SDS011;64044;59.904;10.738;2023-08-06T08:53:14;2.05;;;1.00;;
74293;SDS011;64044;59.904;10.738;2023-08-06T08:55:41;4.10;;;1.38;;
74293;SDS011;64044;59.904;10.738;2023-08-06T08:58:09;6.28;;;1.48;;
74293;SDS011;64044;59.904;10.738;2023-08-06T09:00:35;4.93;;;1.40;;
74293;SDS011;64044;59.904;10.738;2023-08-06T09:03:01;1.85;;;1.02;;
74293;SDS011;64044;59.904;10.738;2023-08-06T09:05:30;3.33;;;1.00;;
74293;SDS011;64044;59.904;10.738;2023-08-06T09:08:00;2.40;;;0.93;;
74293;SDS011;64044;59.904;10.738;2023-08-06T09:10:28;1.98;;;1.20;;
74293;SDS011;64044;59.904;10.738;2023-08-06T09:12:55;4.28;;;1.55;;
74293;SDS011;64044;59.904;10.738;2023-08-06T09:15:25;2.50;;;1.20;;
74293;SDS011;64044;59.904;10.738;2023-08-06T09:17:52;2.53;;;1.42;;
74293;SDS011;64044;59.904;10.738;2023-08-06T09:20:19;4.97;;;1.40;;
74293;SDS011;64044;59.904;10.738;2023-08-06T09:22:45;3.95;;;1.00;;
74293;SDS011;64044;59.904;10.738;2023-08-06T09:25:13;3.67;;;1.00;;
74293;SDS011;64044;59.904;10.738;2023-08-06T09:27:50;3.22;;;0.80;;
74293;SDS011;64044;59.904;10.738;2023-08-06T09:30:29;2.97;;;1.25;;
74293;SDS011;64044;59.904;10.738;2023-08-06T09:32:56;2.25;;;0.80;;
74293;SDS011;64044;59.904;10.738;2023-08-06T09:35:22;2.67;;;1.15;;
74293;SDS011;64044;59.904;10.738;2023-08-06T09:37:48;2.50;;;0.98;;
74293;SDS011;64044;59.904;10.738;2023-08-06T09:42:59;3.85;;;1.08;;
74293;SDS011;64044;59.904;10.738;2023-08-06T09:45:28;3.40;;;1.00;;
74293;SDS011;64044;59.904;10.738;2023-08-06T09:47:57;2.28;;;1.13;;
74293;SDS011;64044;59.904;10.738;2023-08-06T09:50:26;3.58;;;1.30;;
74293;SDS011;64044;59.904;10.738;2023-08-06T09:52:55;2.55;;;1.33;;
74293;SDS011;64044;59.904;10.738;2023-08-06T09:55:21;2.95;;;1.15;;
74293;SDS011;64044;59.904;10.738;2023-08-06T09:57:50;2.72;;;1.60;;
74293;SDS011;64044;59.904;10.738;2023-08-06T10:00:16;3.97;;;1.30;;
74293;SDS011;64044;59.904;10.738;2023-08-06T10:02:43;2.40;;;1.10;;
74293;SDS011;64044;59.904;10.738;2023-08-06T10:05:10;1.67;;;0.93;;
74293;SDS011;64044;59.904;10.738;2023-08-06T10:07:36;2.63;;;0.80;;
74293;SDS011;64044;59.904;10.738;2023-08-06T10:10:05;3.53;;;1.17;;
74293;SDS011;64044;59.904;10.738;2023-08-06T10:12:34;1.17;;;1.00;;
74293;SDS011;64044;59.904;10.738;2023-08-06T10:15:07;1.10;;;1.00;;
74293;SDS011;64044;59.904;10.738;2023-08-06T10:17:35;2.72;;;1.20;;
74293;SDS011;64044;59.904;10.738;2023-08-06T10:20:04;2.40;;;1.10;;
74293;SDS011;64044;59.904;10.738;2023-08-06T10:22:32;2.55;;;0.90;;
74293;SDS011;64044;59.904;10.738;2023-08-06T10:24:59;2.13;;;1.02;;
74293;SDS011;64044;59.904;10.738;2023-08-06T10:30:26;2.72;;;1.13;;
74293;SDS011;64044;59.904;10.738;2023-08-06T10:32:57;2.00;;;1.30;;
74293;SDS011;64044;59.904;10.738;2023-08-06T10:40:52;1.77;;;0.80;;
74293;SDS011;64044;59.904;10.738;2023-08-06T10:43:33;1.10;;;0.90;;
74293;SDS011;64044;59.904;10.738;2023-08-06T10:46:03;3.08;;;1.02;;
74293;SDS011;64044;59.904;10.738;2023-08-06T10:48:38;2.17;;;1.10;;
74293;SDS011;64044;59.904;10.738;2023-08-06T10:51:08;3.17;;;1.80;;
74293;SDS011;64044;59.904;10.738;2023-08-06T10:53:41;1.33;;;1.13;;
74293;SDS011;64044;59.904;10.738;2023-08-06T10:56:15;1.38;;;1.08;;
74293;SDS011;64044;59.904;10.738;2023-08-06T10:58:42;2.50;;;1.00;;
74293;SDS011;64044;59.904;10.738;2023-08-06T11:01:09;1.40;;;1.00;;
74293;SDS011;64044;59.904;10.738;2023-08-06T11:03:35;2.88;;;1.52;;
74293;SDS011;64044;59.904;10.738;2023-08-06T11:06:01;1.92;;;1.10;;
74293;SDS011;64044;59.904;10.738;2023-08-06T11:08:28;1.35;;;1.00;;
74293;SDS011;64044;59.904;10.738;2023-08-06T11:10:56;4.35;;;1.35;;
74293;SDS011;64044;59.904;10.738;2023-08-06T11:13:43;1.77;;;0.82;;
74293;SDS011;64044;59.904;10.738;2023-08-06T11:16:11;2.22;;;1.00;;
74293;SDS011;64044;59.904;10.738;2023-08-06T11:18:41;1.95;;;0.75;;
74293;SDS011;64044;59.904;10.738;2023-08-06T11:21:07;2.97;;;1.30;;
74293;SDS011;64044;59.904;10.738;2023-08-06T11:23:33;2.15;;;0.95;;
74293;SDS011;64044;59.904;10.738;2023-08-06T11:26:00;3.58;;;1.13;;
74293;SDS011;64044;59.904;10.738;2023-08-06T11:28:26;1.35;;;1.00;;
74293;SDS011;64044;59.904;10.738;2023-08-06T11:30:52;0.88;;;0.70;;
74293;SDS011;64044;59.904;10.738;2023-08-06T11:33:21;1.52;;;1.00;;
74293;SDS011;64044;59.904;10.738;2023-08-06T11:35:47;1.55;;;0.93;;
74293;SDS011;64044;59.904;10.738;2023-08-06T11:38:14;1.63;;;0.88;;
74293;SDS011;64044;59.904;10.738;2023-08-06T11:40:41;6.20;;;1.15;;
74293;SDS011;64044;59.904;10.738;2023-08-06T11:43:08;1.27;;;1.10;;
74293;SDS011;64044;59.904;10.738;2023-08-06T11:45:35;1.65;;;1.10;;
74293;SDS011;64044;59.904;10.738;2023-08-06T11:48:01;2.30;;;1.08;;
74293;SDS011;64044;59.904;10.738;2023-08-06T11:50:28;1.90;;;0.88;;
74293;SDS011;64044;59.904;10.738;2023-08-06T11:52:56;1.40;;;0.85;;
74293;SDS011;64044;59.904;10.738;2023-08-06T11:55:24;1.53;;;1.07;;
74293;SDS011;64044;59.904;10.738;2023-08-06T11:57:51;2.67;;;1.00;;
74293;SDS011;64044;59.904;10.738;2023-08-06T12:00:16;4.05;;;1.10;;
74293;SDS011;64044;59.904;10.738;2023-08-06T12:02:47;4.35;;;1.00;;
74293;SDS011;64044;59.904;10.738;2023-08-06T12:05:21;1.90;;;1.08;;
74293;SDS011;64044;59.904;10.738;2023-08-06T12:07:57;1.58;;;0.80;;
74293;SDS011;64044;59.904;10.738;2023-08-06T12:10:27;5.22;;;1.20;;
74293;SDS011;64044;59.904;10.738;2023-08-06T12:12:54;0.93;;;0.90;;
74293;SDS011;64044;59.904;10.738;2023-08-06T12:15:20;1.73;;;1.10;;
74293;SDS011;64044;59.904;10.738;2023-08-06T12:17:47;3.67;;;1.30;;
74293;SDS011;64044;59.904;10.738;2023-08-06T12:20:13;2.42;;;1.20;;
74293;SDS011;64044;59.904;10.738;2023-08-06T12:22:38;1.20;;;1.00;;
74293;SDS011;64044;59.904;10.738;2023-08-06T12:25:08;5.43;;;1.40;;
74293;SDS011;64044;59.904;10.738;2023-08-06T12:27:43;3.03;;;1.17;;
74293;SDS011;64044;59.904;10.738;2023-08-06T12:30:11;2.63;;;0.90;;
74293;SDS011;64044;59.904;10.738;2023-08-06T12:32:37;1.92;;;1.20;;
74293;SDS011;64044;59.904;10.738;2023-08-06T12:35:03;1.88;;;1.13;;
74293;SDS011;64044;59.904;10.738;2023-08-06T12:37:32;3.60;;;1.23;;
74293;SDS011;64044;59.904;10.738;2023-08-06T12:39:57;1.40;;;1.30;;
74293;SDS011;64044;59.904;10.738;2023-08-06T12:42:23;2.67;;;0.95;;
74293;SDS011;64044;59.904;10.738;2023-08-06T12:44:49;0.90;;;0.70;;
74293;SDS011;64044;59.904;10.738;2023-08-06T12:47:15;3.38;;;1.17;;
74293;SDS011;64044;59.904;10.738;2023-08-06T12:49:42;1.48;;;0.90;;
74293;SDS011;64044;59.904;10.738;2023-08-06T12:52:08;2.47;;;1.20;;
74293;SDS011;64044;59.904;10.738;2023-08-06T12:54:34;3.30;;;1.10;;
74293;SDS011;64044;59.904;10.738;2023-08-06T12:57:03;2.17;;;1.20;;
74293;SDS011;64044;59.904;10.738;2023-08-06T12:59:30;4.72;;;1.23;;
74293;SDS011;64044;59.904;10.738;2023-08-06T13:01:55;2.60;;;1.35;;
74293;SDS011;64044;59.904;10.738;2023-08-06T13:04:21;3.80;;;1.00;;
74293;SDS011;64044;59.904;10.738;2023-08-06T13:06:47;2.42;;;0.90;;
74293;SDS011;64044;59.904;10.738;2023-08-06T13:09:13;2.33;;;1.15;;
74293;SDS011;64044;59.904;10.738;2023-08-06T13:11:40;1.90;;;1.08;;
74293;SDS011;64044;59.904;10.738;2023-08-06T13:14:07;1.25;;;1.15;;
74293;SDS011;64044;59.904;10.738;2023-08-06T13:16:35;2.53;;;1.10;;
74293;SDS011;64044;59.904;10.738;2023-08-06T13:19:02;4.03;;;0.93;;
74293;SDS011;64044;59.904;10.738;2023-08-06T13:21:32;2.03;;;1.27;;
74293;SDS011;64044;59.904;10.738;2023-08-06T13:24:21;2.92;;;1.20;;
74293;SDS011;64044;59.904;10.738;2023-08-06T13:26:46;4.15;;;1.65;;
74293;SDS011;64044;59.904;10.738;2023-08-06T13:29:12;1.40;;;1.20;;
74293;SDS011;64044;59.904;10.738;2023-08-06T13:31:38;3.80;;;1.77;;
74293;SDS011;64044;59.904;10.738;2023-08-06T13:34:04;3.30;;;1.30;;
74293;SDS011;64044;59.904;10.738;2023-08-06T13:36:29;3.95;;;1.58;;
74293;SDS011;64044;59.904;10.738;2023-08-06T13:38:56;2.53;;;1.23;;
74293;SDS011;64044;59.904;10.738;2023-08-06T13:41:22;1.20;;;1.10;;
74293;SDS011;64044;59.904;10.738;2023-08-06T13:43:48;6.55;;;1.27;;
74293;SDS011;64044;59.904;10.738;2023-08-06T13:46:15;2.35;;;0.95;;
74293;SDS011;64044;59.904;10.738;2023-08-06T13:48:45;1.95;;;1.25;;
74293;SDS011;64044;59.904;10.738;2023-08-06T13:51:12;2.55;;;1.35;;
74293;SDS011;64044;59.904;10.738;2023-08-06T13:53:38;2.05;;;1.27;;
74293;SDS011;64044;59.904;10.738;2023-08-06T13:56:05;2.42;;;1.27;;
74293;SDS011;64044;59.904;10.738;2023-08-06T13:58:31;2.90;;;1.23;;
74293;SDS011;64044;59.904;10.738;2023-08-06T14:00:57;2.20;;;1.40;;
74293;SDS011;64044;59.904;10.738;2023-08-06T14:03:23;2.75;;;1.30;;
74293;SDS011;64044;59.904;10.738;2023-08-06T14:05:48;2.42;;;1.10;;
74293;SDS011;64044;59.904;10.738;2023-08-06T14:08:15;4.25;;;1.38;;
74293;SDS011;64044;59.904;10.738;2023-08-06T14:10:43;2.10;;;1.30;;
74293;SDS011;64044;59.904;10.738;2023-08-06T14:13:09;1.25;;;1.15;;
74293;SDS011;64044;59.904;10.738;2023-08-06T14:15:35;6.53;;;1.50;;
74293;SDS011;64044;59.904;10.738;2023-08-06T14:18:01;2.88;;;1.40;;
74293;SDS011;64044;59.904;10.738;2023-08-06T14:20:27;4.63;;;1.50;;
74293;SDS011;64044;59.904;10.738;2023-08-06T14:22:53;2.30;;;1.40;;
74293;SDS011;64044;59.904;10.738;2023-08-06T14:25:19;3.13;;;1.70;;
74293;SDS011;64044;59.904;10.738;2023-08-06T14:27:45;1.95;;;1.42;;
74293;SDS011;64044;59.904;10.738;2023-08-06T14:30:11;2.90;;;1.33;;
74293;SDS011;64044;59.904;10.738;2023-08-06T14:32:36;1.98;;;1.50;;
74293;SDS011;64044;59.904;10.738;2023-08-06T14:35:02;3.38;;;1.75;;
74293;SDS011;64044;59.904;10.738;2023-08-06T14:37:28;1.83;;;1.50;;
74293;SDS011;64044;59.904;10.738;2023-08-06T14:39:54;3.05;;;1.50;;
74293;SDS011;64044;59.904;10.738;2023-08-06T14:42:19;2.83;;;1.58;;
74293;SDS011;64044;59.904;10.738;2023-08-06T14:44:45;2.03;;;1.48;;
74293;SDS011;64044;59.904;10.738;2023-08-06T14:47:11;1.73;;;1.52;;
74293;SDS011;64044;59.904;10.738;2023-08-06T14:49:37;2.22;;;1.27;;
74293;SDS011;64044;59.904;10.738;2023-08-06T14:52:03;3.58;;;1.63;;
74293;SDS011;64044;59.904;10.738;2023-08-06T14:54:29;2.00;;;1.15;;